CST,Max TemperatureF,Mean TemperatureF,Min TemperatureF,Max Dew PointF,MeanDew PointF,Min DewpointF,Max Humidity, Mean Humidity, Min Humidity, Max Sea Level PressureIn, Mean Sea Level PressureIn, Min Sea Level PressureIn, Max VisibilityMiles, Mean VisibilityMiles, Min VisibilityMiles, Max Wind SpeedMPH, Mean Wind SpeedMPH, Max Gust SpeedMPH,PrecipitationIn, CloudCover, Events, WindDirDegrees
2013-2-1,13,7,0,10,0,-7,92,71,56,30.39,30.29,30.18,10,8,2,18,10,25,T,3,Snow,250
2013-2-2,22,15,8,20,11,0,93,81,64,30.17,30.07,30.01,10,5,1,17,8,23,T,8,Snow,263
2013-2-3,22,16,9,17,10,-1,89,74,60,30.09,30.03,29.98,10,6,1,23,8,28,T,7,Snow,275
2013-2-4,28,21,13,23,18,5,93,85,70,30.04,29.94,29.88,10,5,1,16,6,21,T,7,Snow,29
2013-2-5,30,19,7,27,18,3,93,79,65,30.11,29.91,29.81,10,5,0,17,8,22,T,7,Fog-Snow,243
2013-2-6,36,23,9,28,20,9,92,73,59,30.27,30.20,30.13,10,7,3,13,6,16,0.00,3,,185
2013-2-7,34,33,32,32,31,27,96,91,78,30.13,29.99,29.88,6,2,0,15,6,22,0.61,8,Fog-Rain-Snow,118
2013-2-8,33,28,23,28,22,19,93,85,80,30.43,30.23,29.95,10,8,2,21,10,29,T,8,Snow,330
2013-2-9,33,26,19,25,22,18,92,82,69,30.42,30.31,30.11,10,8,4,17,5,20,0.00,4,,186
2013-2-10,49,38,27,44,36,23,93,86,63,30.11,29.75,29.51,10,7,2,25,12,36,0.37,7,Rain,164
2013-2-11,45,37,28,31,24,19,73,68,62,30.04,29.74,29.52,10,10,5,29,19,43,T,8,Snow,256
2013-2-12,28,25,21,20,19,17,89,76,72,30.13,30.06,29.94,10,10,7,17,8,23,0.00,5,,255
2013-2-13,44,32,20,31,25,18,92,77,51,29.93,29.81,29.74,10,7,3,12,5,16,0.00,1,,206
2013-2-14,39,36,32,32,27,20,82,69,54,29.99,29.79,29.65,10,10,8,21,11,29,T,7,,256
2013-2-15,33,26,19,25,13,8,80,58,40,30.21,30.15,30.01,10,10,7,17,10,22,T,3,Snow,317
2013-2-16,21,16,11,6,3,0,67,59,47,30.24,30.20,30.17,10,10,10,17,9,22,T,3,,317
2013-2-17,30,20,9,13,3,-2,67,50,29,30.27,30.19,30.03,10,10,10,13,5,17,0.00,0,,188
2013-2-18,52,40,28,45,33,14,93,73,53,30.01,29.62,29.42,10,8,3,26,16,35,0.15,5,Rain-Snow,201
2013-2-19,31,21,11,21,8,0,80,70,59,30.21,29.86,29.58,10,6,1,28,17,36,T,7,Snow,276
2013-2-20,25,17,8,11,5,-1,74,64,57,30.40,30.35,30.22,10,10,10,13,9,21,0.00,0,,318
2013-2-21,30,24,18,25,19,10,93,77,65,30.41,30.25,30.02,10,8,0,20,9,30,T,8,Fog-Snow,45
2013-2-22,35,30,25,30,24,21,93,86,75,30.01,29.89,29.81,9,4,0,16,9,23,0.06,8,Fog-Snow,154
2013-2-23,29,26,23,23,18,15,81,70,58,29.99,29.94,29.89,10,9,5,16,9,21,0.00,6,,246
2013-2-24,39,28,16,21,18,13,85,67,48,30.17,30.11,30.00,10,9,6,9,3,12,0.00,0,,263
2013-2-25,42,31,19,29,24,15,89,72,51,30.21,30.14,30.01,10,8,5,12,4,16,0.00,0,,74
2013-2-26,36,34,32,32,30,26,96,85,70,29.98,29.67,29.53,10,4,0,24,15,36,0.01,6,Fog-Snow,46
2013-2-27,34,33,32,32,31,30,96,93,87,29.72,29.61,29.52,8,3,1,14,9,21,0.41,8,Snow,337
2013-2-28,35,31,27,31,28,20,96,85,72,30.10,29.91,29.71,10,7,2,18,11,26,0.02,8,Snow,349